createdAt,value
2024-05-09T00:02:26.995Z,5.18
2024-05-09T00:07:29.341Z,5.22
2024-05-09T00:12:31.638Z,5.47
2024-05-09T00:17:34.153Z,4.93
2024-05-09T00:22:36.803Z,4.97
2024-05-09T00:27:39.113Z,4.20
2024-05-09T00:32:41.544Z,3.67
2024-05-09T00:37:43.863Z,4.03
2024-05-09T00:42:47.433Z,3.58
2024-05-09T00:47:50.275Z,4.68
2024-05-09T00:52:52.808Z,4.47
2024-05-09T00:57:55.380Z,5.70
2024-05-09T01:02:57.868Z,6.55
2024-05-09T01:08:00.503Z,6.43
2024-05-09T01:13:03.588Z,6.35
2024-05-09T01:18:13.475Z,5.22
2024-05-09T01:23:16.790Z,4.53
2024-05-09T01:28:19.127Z,2.83
2024-05-09T01:33:21.526Z,2.47
2024-05-09T01:38:23.925Z,2.42
2024-05-09T01:43:26.281Z,1.92
2024-05-09T01:48:28.737Z,2.50
2024-05-09T01:53:31.288Z,2.80
2024-05-09T01:58:33.653Z,2.70
2024-05-09T02:03:35.970Z,3.17
2024-05-09T02:08:38.386Z,3.22
2024-05-09T02:13:41.881Z,3.75
2024-05-09T02:18:44.227Z,3.42
2024-05-09T02:23:46.669Z,3.30
2024-05-09T02:28:49.010Z,2.42
2024-05-09T02:33:51.574Z,2.92
2024-05-09T02:38:53.993Z,2.97
2024-05-09T02:43:56.692Z,3.45
2024-05-09T02:48:59.066Z,2.85
2024-05-09T02:54:01.436Z,3.25
2024-05-09T02:59:03.747Z,3.20
2024-05-09T03:04:06.277Z,3.60
2024-05-09T03:09:09.472Z,3.67
2024-05-09T03:14:11.886Z,4.03
2024-05-09T03:19:14.366Z,5.68
2024-05-09T03:24:16.752Z,5.10
2024-05-09T03:29:19.077Z,5.30
2024-05-09T03:34:21.449Z,5.43
2024-05-09T03:39:23.755Z,4.78
2024-05-09T03:44:26.229Z,4.93
2024-05-09T03:49:28.691Z,4.93
2024-05-09T03:54:31.014Z,4.78
2024-05-09T03:59:33.393Z,4.13
2024-05-09T04:04:35.845Z,4.03
2024-05-09T04:09:38.255Z,4.15
2024-05-09T04:14:40.639Z,4.07
2024-05-09T04:19:42.907Z,3.63
2024-05-09T04:24:45.218Z,3.40
2024-05-09T04:29:47.465Z,3.42
2024-05-09T04:34:49.774Z,3.58
2024-05-09T04:39:52.143Z,3.72
2024-05-09T04:44:58.294Z,3.25
2024-05-09T04:50:01.057Z,3.83
2024-05-09T04:55:03.350Z,4.20
2024-05-09T05:00:09.445Z,3.70
2024-05-09T05:05:16.892Z,3.25
2024-05-09T05:10:25.438Z,3.05
2024-05-09T05:15:31.853Z,2.80
2024-05-09T05:20:34.514Z,2.55
2024-05-09T05:25:37.999Z,2.55
2024-05-09T05:30:41.477Z,2.40
2024-05-09T05:35:43.869Z,2.05
2024-05-09T05:40:46.302Z,2.15
2024-05-09T05:45:48.641Z,1.40
2024-05-09T05:50:51.035Z,1.80
2024-05-09T05:55:53.382Z,2.08
2024-05-09T06:00:55.780Z,1.60
2024-05-09T06:05:58.329Z,2.30
2024-05-09T06:11:00.812Z,2.20
2024-05-09T06:16:03.179Z,2.35
2024-05-09T06:21:05.546Z,2.38
2024-05-09T06:26:07.891Z,2.10
2024-05-09T06:31:10.193Z,2.28
2024-05-09T06:36:12.506Z,2.45
2024-05-09T06:41:14.830Z,2.85
2024-05-09T06:46:17.195Z,2.67
2024-05-09T06:51:19.496Z,2.65
2024-05-09T06:56:21.867Z,2.72
2024-05-09T07:01:24.249Z,2.65
2024-05-09T07:06:26.751Z,2.78
2024-05-09T07:11:29.121Z,2.50
2024-05-09T07:16:31.401Z,2.50
2024-05-09T07:21:33.671Z,2.17
2024-05-09T07:26:36.083Z,2.17
2024-05-09T07:31:38.374Z,2.30
2024-05-09T07:36:40.641Z,2.00
2024-05-09T07:41:43.008Z,1.20
2024-05-09T07:47:48.001Z,1.50
2024-05-09T07:57:12.845Z,1.73
2024-05-09T08:02:15.372Z,1.30
2024-05-09T08:07:17.836Z,1.60
2024-05-09T08:12:20.193Z,1.35
2024-05-09T08:17:22.698Z,1.60
2024-05-09T08:22:25.062Z,1.08
2024-05-09T08:27:27.435Z,1.48
2024-05-09T08:32:29.765Z,1.60
2024-05-09T08:37:36.842Z,1.40
2024-05-09T08:42:45.435Z,1.80
2024-05-09T08:47:50.394Z,1.98
2024-05-09T08:52:52.717Z,2.40
2024-05-09T08:57:55.497Z,2.08
2024-05-09T09:02:58.096Z,1.80
2024-05-09T09:08:00.447Z,1.77
2024-05-09T09:13:03.176Z,1.55
2024-05-09T09:18:07.265Z,1.93
2024-05-09T09:23:10.112Z,1.95
2024-05-09T09:28:12.907Z,1.20
2024-05-09T09:33:15.275Z,1.60
2024-05-09T09:38:19.950Z,1.90
2024-05-09T09:43:23.019Z,1.85
2024-05-09T09:48:26.560Z,2.05
2024-05-09T09:53:29.065Z,1.52
2024-05-09T09:58:33.567Z,2.22
2024-05-09T10:03:36.084Z,1.85
2024-05-09T10:08:38.697Z,2.30
2024-05-09T10:13:41.875Z,2.30
2024-05-09T10:18:44.383Z,2.15
2024-05-09T10:24:05.163Z,2.78
2024-05-09T10:29:13.857Z,2.90
2024-05-09T10:34:19.882Z,2.63
2024-05-09T10:39:22.615Z,2.78
2024-05-09T10:44:24.907Z,2.38
2024-05-09T10:49:27.348Z,2.22
2024-05-09T10:54:36.099Z,2.13
2024-05-09T10:59:38.587Z,2.17
2024-05-09T11:04:41.732Z,2.60
2024-05-09T11:09:44.332Z,2.70
2024-05-09T11:14:53.587Z,1.80
2024-05-09T11:19:55.885Z,2.33
2024-05-09T11:24:58.387Z,2.53
2024-05-09T11:30:00.713Z,2.40
2024-05-09T11:35:03.024Z,3.08
2024-05-09T11:40:09.253Z,2.80
2024-05-09T11:45:13.986Z,2.88
2024-05-09T11:50:26.405Z,2.67
2024-05-09T11:55:32.232Z,2.58
2024-05-09T12:00:37.409Z,1.98
2024-05-09T12:05:40.424Z,2.42
2024-05-09T12:10:43.116Z,3.30
2024-05-09T12:15:45.560Z,2.80
2024-05-09T12:20:47.909Z,3.40
2024-05-09T12:25:50.223Z,3.55
2024-05-09T12:30:52.552Z,2.22
2024-05-09T12:35:54.851Z,2.22
2024-05-09T12:40:57.187Z,2.63
2024-05-09T12:45:59.610Z,2.03
2024-05-09T12:51:01.950Z,1.40
2024-05-09T12:56:05.471Z,1.50
2024-05-09T13:01:08.445Z,1.80
2024-05-09T13:06:10.983Z,1.60
2024-05-09T13:11:13.309Z,1.85
2024-05-09T13:16:15.595Z,2.05
2024-05-09T13:21:17.913Z,2.05
2024-05-09T13:26:20.304Z,1.98
2024-05-09T13:31:22.659Z,2.63
2024-05-09T13:36:25.007Z,2.33
2024-05-09T13:41:27.311Z,2.22
2024-05-09T13:46:29.710Z,1.77
2024-05-09T13:51:32.104Z,3.22
2024-05-09T13:56:34.487Z,2.22
2024-05-09T14:01:36.871Z,1.77
2024-05-09T14:06:39.393Z,1.93
2024-05-09T14:11:41.730Z,1.60
2024-05-09T14:16:44.354Z,1.95
2024-05-09T14:21:46.777Z,1.30
2024-05-09T14:26:49.089Z,1.75
2024-05-09T14:31:51.408Z,3.95
2024-05-09T14:36:53.792Z,2.00
2024-05-09T14:41:56.137Z,2.00
2024-05-09T14:46:58.426Z,2.33
2024-05-09T14:52:00.859Z,1.98
2024-05-09T14:57:03.182Z,2.05
2024-05-09T15:02:05.481Z,1.73
2024-05-09T15:07:09.581Z,26.50
2024-05-09T15:12:12.619Z,1.90
2024-05-09T15:17:14.905Z,1.38
2024-05-09T15:22:17.267Z,1.38
2024-05-09T15:27:19.581Z,1.65
2024-05-09T15:32:21.861Z,1.92
2024-05-09T15:37:24.376Z,1.80
2024-05-09T15:42:26.735Z,1.83
2024-05-09T15:47:29.099Z,1.70
2024-05-09T15:52:31.418Z,1.73
2024-05-09T15:57:33.771Z,1.87
2024-05-09T16:02:36.217Z,1.40
2024-05-09T16:07:38.604Z,1.70
2024-05-09T16:12:40.904Z,1.95
2024-05-09T16:17:43.197Z,1.70
2024-05-09T16:22:45.471Z,1.40
2024-05-09T16:27:47.819Z,1.52
2024-05-09T16:32:50.187Z,1.77
2024-05-09T16:37:52.628Z,1.55
2024-05-09T16:42:54.965Z,1.58
2024-05-09T16:47:57.565Z,1.85
2024-05-09T16:53:00.231Z,2.43
2024-05-09T16:58:03.041Z,2.10
2024-05-09T17:03:05.893Z,1.43
2024-05-09T17:08:08.761Z,1.63
2024-05-09T17:13:11.230Z,1.77
2024-05-09T17:18:13.717Z,1.40
2024-05-09T17:23:16.055Z,1.67
2024-05-09T17:28:18.564Z,1.85
2024-05-09T17:33:21.040Z,1.98
2024-05-09T17:38:23.428Z,1.70
2024-05-09T17:43:25.942Z,1.90
2024-05-09T17:48:28.371Z,2.58
2024-05-09T17:53:30.717Z,2.20
2024-05-09T17:58:33.084Z,2.45
2024-05-09T18:03:35.438Z,1.80
2024-05-09T18:08:37.783Z,1.50
2024-05-09T18:13:40.028Z,1.70
2024-05-09T18:18:42.463Z,3.33
2024-05-09T18:23:44.811Z,3.17
2024-05-09T18:28:47.086Z,3.53
2024-05-09T18:33:49.507Z,4.40
2024-05-09T18:38:51.972Z,4.75
2024-05-09T18:43:54.295Z,4.30
2024-05-09T18:48:56.714Z,4.47
2024-05-09T18:53:59.150Z,4.35
2024-05-09T18:59:01.436Z,4.90
2024-05-09T19:04:03.866Z,4.60
2024-05-09T19:09:06.360Z,5.20
2024-05-09T19:14:08.678Z,5.22
2024-05-09T19:19:11.198Z,4.68
2024-05-09T19:24:13.620Z,6.05
2024-05-09T19:29:15.868Z,6.00
2024-05-09T19:34:18.275Z,6.20
2024-05-09T19:39:20.655Z,5.80
2024-05-09T19:44:22.930Z,6.13
2024-05-09T19:49:25.408Z,5.32
2024-05-09T19:54:27.859Z,6.65
2024-05-09T19:59:30.141Z,5.93
2024-05-09T20:04:32.743Z,7.13
2024-05-09T20:09:35.223Z,7.60
2024-05-09T20:14:37.504Z,7.50
2024-05-09T20:19:39.964Z,8.50
2024-05-09T20:24:42.496Z,8.45
2024-05-09T20:29:44.763Z,7.85
2024-05-09T20:34:47.019Z,7.68
2024-05-09T20:39:49.459Z,6.93
2024-05-09T20:44:51.778Z,6.63
2024-05-09T20:49:54.064Z,6.55
2024-05-09T20:54:56.345Z,6.88
2024-05-09T20:59:58.749Z,6.80
2024-05-09T21:05:01.139Z,5.85
2024-05-09T21:10:08.126Z,5.55
2024-05-09T21:15:14.757Z,5.35
2024-05-09T21:20:20.457Z,6.10
2024-05-09T21:25:26.476Z,6.50
2024-05-09T21:30:38.481Z,6.30
2024-05-09T21:35:45.003Z,6.85
2024-05-09T21:40:47.616Z,7.33
2024-05-09T21:45:50.100Z,7.10
2024-05-09T21:50:52.619Z,8.63
2024-05-09T21:55:54.944Z,7.68
2024-05-09T22:00:57.349Z,7.45
2024-05-09T22:05:59.694Z,7.63
2024-05-09T22:11:02.184Z,7.22
2024-05-09T22:16:04.863Z,7.95
2024-05-09T22:21:07.260Z,7.78
2024-05-09T22:26:09.542Z,6.93
2024-05-09T22:31:11.918Z,6.78
2024-05-09T22:36:14.357Z,7.47
2024-05-09T22:41:16.668Z,8.73
2024-05-09T22:46:18.944Z,7.07
2024-05-09T22:51:21.262Z,7.88
2024-05-09T22:56:27.124Z,8.10
2024-05-09T23:01:29.544Z,7.82
2024-05-09T23:06:32.262Z,7.50
2024-05-09T23:11:34.625Z,7.13
2024-05-09T23:16:36.967Z,7.32
2024-05-09T23:21:42.024Z,6.72
2024-05-09T23:26:44.270Z,6.80
2024-05-09T23:31:46.569Z,6.57
2024-05-09T23:36:48.888Z,6.70
2024-05-09T23:41:51.191Z,6.65
2024-05-09T23:46:53.518Z,6.90
2024-05-09T23:51:56.031Z,6.20
2024-05-09T23:56:58.309Z,6.15
